createdAt,value
2022-12-05T00:02:57.145Z,98705.34
2022-12-05T00:08:02.262Z,98689.53
2022-12-05T00:13:10.253Z,98695.34
2022-12-05T00:18:15.282Z,98696.13
2022-12-05T00:23:20.156Z,98703.78
2022-12-05T00:28:27.713Z,98707.75
2022-12-05T00:33:32.678Z,98713.81
2022-12-05T00:38:38.008Z,98715.66
2022-12-05T00:43:46.723Z,98717.22
2022-12-05T00:48:52.219Z,98722.25
2022-12-05T00:53:58.043Z,98719.34
2022-12-05T00:59:07.084Z,98706.41
2022-12-05T01:04:24.247Z,98691.03
2022-12-05T01:09:29.903Z,98696.75
2022-12-05T01:14:37.620Z,98696.22
2022-12-05T01:19:42.565Z,98693.28
2022-12-05T01:24:47.480Z,98700.69
2022-12-05T01:29:55.385Z,98699.91
2022-12-05T01:35:01.195Z,98695.41
2022-12-05T01:40:06.876Z,98708.31
2022-12-05T01:45:19.099Z,98715.44
2022-12-05T01:50:24.222Z,98713.84
2022-12-05T01:55:29.291Z,98711.25
2022-12-05T02:00:36.826Z,98713.59
2022-12-05T02:05:42.521Z,98714.66
2022-12-05T02:10:54.711Z,98713.38
2022-12-05T02:16:06.337Z,98721.00
2022-12-05T02:21:34.193Z,98716.25
2022-12-05T02:26:53.391Z,98718.66
2022-12-05T02:32:11.161Z,98721.53
2022-12-05T02:37:21.293Z,98724.25
2022-12-05T02:42:33.954Z,98715.22
2022-12-05T02:47:45.485Z,98715.75
2022-12-05T02:52:53.842Z,98713.16
2022-12-05T02:58:03.789Z,98706.28
2022-12-05T03:03:18.551Z,98708.13
2022-12-05T03:08:28.849Z,98707.38
2022-12-05T03:13:38.529Z,98715.81
2022-12-05T03:18:52.114Z,98709.50
2022-12-05T03:24:03.690Z,98711.06
2022-12-05T03:29:23.120Z,98711.88
2022-12-05T03:34:40.273Z,98704.19
2022-12-05T03:39:51.604Z,98718.47
2022-12-05T03:45:02.485Z,98710.28
2022-12-05T03:50:17.469Z,98726.13
2022-12-05T03:55:24.904Z,98724.78
2022-12-05T04:00:34.212Z,98719.75
2022-12-05T04:05:47.343Z,98720.84
2022-12-05T04:10:57.260Z,98725.84
2022-12-05T04:16:20.378Z,98723.75
2022-12-05T04:21:42.286Z,98721.63
2022-12-05T04:26:53.690Z,98730.59
2022-12-05T04:32:04.060Z,98729.28
2022-12-05T04:37:24.240Z,98739.88
2022-12-05T04:42:31.923Z,98731.13
2022-12-05T04:47:42.574Z,98730.59
2022-12-05T04:52:53.299Z,98735.38
2022-12-05T04:58:12.358Z,98745.16
2022-12-05T05:03:22.562Z,98744.88
2022-12-05T05:08:32.281Z,98755.44
2022-12-05T05:13:37.265Z,98754.13
2022-12-05T05:18:42.290Z,98753.84
2022-12-05T05:23:50.151Z,98750.16
2022-12-05T05:28:55.493Z,98756.50
2022-12-05T05:34:09.076Z,98758.88
2022-12-05T05:39:18.856Z,98769.44
2022-12-05T05:44:23.826Z,98770.75
2022-12-05T05:49:28.867Z,98773.63
2022-12-05T05:54:36.415Z,98771.28
2022-12-05T05:59:41.392Z,98773.91
2022-12-05T06:04:48.867Z,98772.31
2022-12-05T06:09:57.837Z,98773.38
2022-12-05T06:15:08.862Z,98764.91
2022-12-05T06:20:18.611Z,98788.69
2022-12-05T06:25:26.144Z,98788.69
2022-12-05T06:30:37.002Z,98793.69
2022-12-05T06:35:42.017Z,98809.78
2022-12-05T06:40:49.687Z,98819.03
2022-12-05T06:45:56.324Z,98830.38
2022-12-05T06:51:07.561Z,98839.09
2022-12-05T06:56:18.032Z,98830.38
2022-12-05T07:01:38.135Z,98833.81
2022-12-05T07:06:50.531Z,98844.34
2022-12-05T07:11:58.784Z,98848.88
2022-12-05T07:17:03.980Z,98847.78
2022-12-05T07:22:13.883Z,98841.19
2022-12-05T07:27:28.011Z,98848.31
2022-12-05T07:32:34.956Z,98841.94
2022-12-05T07:37:40.325Z,98842.75
2022-12-05T07:42:55.486Z,98840.66
2022-12-05T07:48:00.921Z,98846.19
2022-12-05T07:53:06.177Z,98854.63
2022-12-05T07:58:13.797Z,98863.63
2022-12-05T08:03:24.058Z,98862.03
2022-12-05T08:08:33.425Z,98862.56
2022-12-05T08:13:46.621Z,98877.06
2022-12-05T08:19:02.394Z,98872.31
2022-12-05T08:24:14.238Z,98879.69
2022-12-05T08:29:25.516Z,98874.38
2022-12-05T08:34:30.463Z,98880.75
2022-12-05T08:39:38.921Z,98874.66
2022-12-05T08:44:52.877Z,98880.19
2022-12-05T08:49:58.519Z,98889.47
2022-12-05T08:55:03.731Z,98896.09
2022-12-05T09:00:12.662Z,98870.94
2022-12-05T09:05:27.644Z,98873.78
2022-12-05T09:10:34.494Z,98883.06
2022-12-05T09:15:48.530Z,98906.06
2022-12-05T09:20:57.215Z,98907.28
2022-12-05T09:26:05.311Z,98920.53
2022-12-05T09:31:16.217Z,98915.72
2022-12-05T09:36:26.289Z,98923.66
2022-12-05T09:42:07.441Z,98925.25
2022-12-05T09:47:24.650Z,98928.94
2022-12-05T09:52:31.919Z,98920.78
2022-12-05T09:57:41.888Z,98919.41
2022-12-05T10:03:01.089Z,98924.97
2022-12-05T10:08:15.762Z,98927.81
2022-12-05T10:13:36.089Z,98932.44
2022-12-05T10:18:47.046Z,98928.44
2022-12-05T10:23:58.750Z,98931.06
2022-12-05T10:29:15.475Z,98941.22
2022-12-05T10:34:31.854Z,98941.47
2022-12-05T10:39:37.385Z,98934.88
2022-12-05T10:44:43.174Z,98934.59
2022-12-05T10:49:51.304Z,98925.88
2022-12-05T10:55:05.108Z,98920.59
2022-12-05T11:00:15.787Z,98924.25
2022-12-05T11:05:36.433Z,98923.78
2022-12-05T11:10:44.326Z,98928.78
2022-12-05T11:15:55.377Z,98930.06
2022-12-05T11:21:14.706Z,98919.69
2022-12-05T11:26:22.642Z,98920.78
2022-12-05T11:31:31.235Z,98912.84
2022-12-05T11:36:46.924Z,98926.88
2022-12-05T11:42:07.195Z,98917.34
2022-12-05T11:47:24.963Z,98917.34
2022-12-05T11:52:42.692Z,98911.22
2022-12-05T11:58:14.313Z,98917.25
2022-12-05T12:03:46.564Z,98907.75
2022-12-05T12:09:11.200Z,98911.16
2022-12-05T12:14:23.047Z,98896.28
2022-12-05T12:19:46.226Z,98899.75
2022-12-05T12:25:20.446Z,98893.47
2022-12-05T12:30:39.709Z,98885.25
2022-12-05T12:35:54.507Z,98891.63
2022-12-05T12:41:25.201Z,98895.09
2022-12-05T12:47:06.239Z,98893.00
2022-12-05T12:58:43.547Z,98886.84
2022-12-05T13:04:32.073Z,98887.66
2022-12-05T13:09:51.525Z,98897.19
2022-12-05T13:15:06.506Z,98897.72
2022-12-05T13:20:19.355Z,98894.56
2022-12-05T13:25:34.335Z,98905.13
2022-12-05T13:31:01.977Z,98897.50
2022-12-05T13:36:25.832Z,98905.78
2022-12-05T13:41:57.742Z,98904.22
2022-12-05T13:47:10.315Z,98914.19
2022-12-05T13:52:24.820Z,98891.50
2022-12-05T13:57:56.441Z,98917.34
2022-12-05T14:03:15.772Z,98920.09
2022-12-05T14:08:50.597Z,98921.59
2022-12-05T14:14:04.562Z,98917.09
2022-12-05T14:19:33.841Z,98907.56
2022-12-05T14:24:48.961Z,98910.16
2022-12-05T14:30:07.858Z,98901.38
2022-12-05T14:35:20.618Z,98912.25
2022-12-05T14:40:32.581Z,98920.03
2022-12-05T14:45:47.103Z,98918.91
2022-12-05T14:51:01.371Z,98924.03
2022-12-05T14:56:17.409Z,98925.91
2022-12-05T15:01:26.208Z,98929.06
2022-12-05T15:06:38.567Z,98930.13
2022-12-05T15:11:45.972Z,98923.78
2022-12-05T15:16:55.744Z,98928.50
2022-12-05T15:22:32.839Z,98929.13
2022-12-05T15:27:39.728Z,98928.00
2022-12-05T15:32:46.098Z,98940.41
2022-12-05T15:38:02.705Z,98928.03
2022-12-05T15:43:32.001Z,98925.16
2022-12-05T15:48:37.553Z,98938.63
2022-12-05T15:53:51.793Z,98941.28
2022-12-05T15:59:05.924Z,98951.84
2022-12-05T16:04:29.204Z,98940.75
2022-12-05T16:09:43.699Z,98950.00
2022-12-05T16:14:59.903Z,98957.16
2022-12-05T16:20:28.308Z,98956.06
2022-12-05T16:25:41.877Z,98942.88
2022-12-05T16:31:04.069Z,98962.44
2022-12-05T16:36:13.339Z,98953.97
2022-12-05T16:41:22.728Z,98957.66
2022-12-05T16:46:47.663Z,98956.59
2022-12-05T16:52:02.899Z,98958.72
2022-12-05T16:57:15.044Z,98973.75
2022-12-05T17:02:22.044Z,98971.38
2022-12-05T17:07:32.404Z,98976.13
2022-12-05T17:12:47.419Z,98957.09
2022-12-05T17:17:53.279Z,98973.50
2022-12-05T17:22:58.790Z,98979.56
2022-12-05T17:28:06.602Z,98982.47
2022-12-05T17:33:14.191Z,98977.44
2022-12-05T17:38:22.168Z,98982.22
2022-12-05T17:43:34.437Z,98969.25
2022-12-05T17:48:39.752Z,98965.56
2022-12-05T17:53:45.828Z,98974.81
2022-12-05T17:58:53.914Z,98968.75
2022-12-05T18:03:59.085Z,98979.31
2022-12-05T18:09:04.136Z,98978.00
2022-12-05T18:14:12.993Z,98981.66
2022-12-05T18:19:21.438Z,98985.38
2022-12-05T18:24:27.352Z,98984.06
2022-12-05T18:29:34.992Z,98990.84
2022-12-05T18:34:39.918Z,98983.25
2022-12-05T18:39:48.197Z,98987.41
2022-12-05T18:44:58.450Z,98994.50
2022-12-05T18:50:04.474Z,98996.66
2022-12-05T18:55:17.251Z,99001.38
2022-12-05T19:00:29.731Z,99003.25
2022-12-05T19:05:35.571Z,99010.38
2022-12-05T19:10:40.519Z,99010.84
2022-12-05T19:15:48.293Z,99014.09
2022-12-05T19:20:54.216Z,99017.72
2022-12-05T19:26:02.071Z,99015.72
2022-12-05T19:31:11.981Z,99011.25
2022-12-05T19:36:18.977Z,99015.09
2022-12-05T19:41:28.252Z,99001.41
2022-12-05T19:46:36.924Z,99007.47
2022-12-05T19:51:43.430Z,99005.38
2022-12-05T19:56:49.168Z,98989.50
2022-12-05T20:01:58.899Z,98996.66
2022-12-05T20:07:07.478Z,99004.13
2022-12-05T20:12:14.341Z,98990.13
2022-12-05T20:17:22.381Z,99005.69
2022-12-05T20:22:31.072Z,98997.75
2022-12-05T20:27:38.799Z,99004.63
2022-12-05T20:32:47.869Z,98998.84
2022-12-05T20:37:55.361Z,99000.91
2022-12-05T20:43:00.967Z,98997.38
2022-12-05T20:48:09.447Z,98999.75
2022-12-05T20:53:18.910Z,98990.72
2022-12-05T20:58:24.149Z,98980.69
2022-12-05T21:03:31.964Z,98974.06
2022-12-05T21:08:36.942Z,98969.66
2022-12-05T21:13:43.247Z,98963.84
2022-12-05T21:18:53.534Z,98966.84
2022-12-05T21:24:00.098Z,98982.31
2022-12-05T21:29:07.331Z,98978.13
2022-12-05T21:34:17.470Z,98983.41
2022-12-05T21:39:24.687Z,98974.38
2022-12-05T21:44:29.550Z,98965.56
2022-12-05T21:49:38.430Z,98966.00
2022-12-05T21:54:43.574Z,98957.75
2022-12-05T21:59:48.558Z,98955.63
2022-12-05T22:04:56.174Z,98956.16
2022-12-05T22:10:01.321Z,98955.88
2022-12-05T22:15:07.222Z,98962.44
2022-12-05T22:20:14.985Z,98962.03
2022-12-05T22:25:21.454Z,98967.22
2022-12-05T22:30:26.462Z,98952.41
2022-12-05T22:35:34.545Z,98963.25
2022-12-05T22:40:39.726Z,98952.91
2022-12-05T22:45:44.688Z,98947.31
2022-12-05T22:50:54.364Z,98939.44
2022-12-05T22:56:05.239Z,98936.56
2022-12-05T23:01:16.126Z,98928.69
2022-12-05T23:06:23.866Z,98918.81
2022-12-05T23:11:30.872Z,98917.63
2022-12-05T23:16:36.591Z,98926.41
2022-12-05T23:21:44.496Z,98912.84
2022-12-05T23:26:49.387Z,98905.25
2022-12-05T23:31:54.451Z,98903.59
2022-12-05T23:37:02.042Z,98904.31
2022-12-05T23:42:12.130Z,98887.19
2022-12-05T23:47:20.595Z,98896.69
2022-12-05T23:52:28.342Z,98891.91
2022-12-05T23:57:33.439Z,98887.69
